createdAt,value
2022-10-09T00:00:06.279Z,6.12
2022-10-09T00:05:15.441Z,7.20
2022-10-09T00:10:19.356Z,6.47
2022-10-09T00:15:24.588Z,7.70
2022-10-09T00:20:28.374Z,7.32
2022-10-09T00:25:32.230Z,6.68
2022-10-09T00:30:40.342Z,7.22
2022-10-09T00:35:44.236Z,7.55
2022-10-09T00:40:48.012Z,7.15
2022-10-09T00:45:57.635Z,7.10
2022-10-09T00:51:03.171Z,7.20
2022-10-09T00:56:07.317Z,6.47
2022-10-09T01:01:12.414Z,7.47
2022-10-09T01:06:21.520Z,6.75
2022-10-09T01:11:35.762Z,6.22
2022-10-09T01:16:46.564Z,6.40
2022-10-09T01:21:59.260Z,6.93
2022-10-09T01:27:12.066Z,6.75
2022-10-09T01:32:19.807Z,6.00
2022-10-09T01:37:24.376Z,6.13
2022-10-09T01:42:30.824Z,6.20
2022-10-09T01:47:34.719Z,5.85
2022-10-09T01:52:45.200Z,6.22
2022-10-09T01:57:54.723Z,5.72
2022-10-09T02:02:59.078Z,6.28
2022-10-09T02:08:03.515Z,5.80
2022-10-09T02:13:08.832Z,5.55
2022-10-09T02:18:16.035Z,5.87
2022-10-09T02:23:22.752Z,5.75
2022-10-09T02:28:27.958Z,5.57
2022-10-09T02:33:33.303Z,6.03
2022-10-09T02:38:37.077Z,5.68
2022-10-09T02:43:42.158Z,5.50
2022-10-09T02:48:46.398Z,5.28
2022-10-09T02:53:52.228Z,6.03
2022-10-09T02:58:57.548Z,5.30
2022-10-09T03:04:01.675Z,5.00
2022-10-09T03:09:05.534Z,5.40
2022-10-09T03:14:11.292Z,5.68
2022-10-09T03:19:15.033Z,4.78
2022-10-09T03:24:18.807Z,4.72
2022-10-09T03:29:24.043Z,5.53
2022-10-09T03:34:27.732Z,5.37
2022-10-09T03:39:31.593Z,5.75
2022-10-09T03:44:36.654Z,5.18
2022-10-09T03:49:40.388Z,5.10
2022-10-09T03:54:44.112Z,5.32
2022-10-09T03:59:49.209Z,5.10
2022-10-09T04:04:52.950Z,4.85
2022-10-09T04:09:56.733Z,4.75
2022-10-09T04:15:01.892Z,5.43
2022-10-09T04:20:06.051Z,7.82
2022-10-09T04:25:10.493Z,6.43
2022-10-09T04:30:15.854Z,6.62
2022-10-09T04:35:19.634Z,7.07
2022-10-09T04:40:23.350Z,6.85
2022-10-09T04:45:28.500Z,7.03
2022-10-09T04:50:32.235Z,7.75
2022-10-09T04:55:40.190Z,7.78
2022-10-09T05:00:46.860Z,8.07
2022-10-09T05:05:50.705Z,8.65
2022-10-09T05:10:54.443Z,8.02
2022-10-09T05:16:02.428Z,8.20
2022-10-09T05:21:06.697Z,8.05
2022-10-09T05:26:14.234Z,8.60
2022-10-09T05:31:22.344Z,7.97
2022-10-09T05:36:26.133Z,7.53
2022-10-09T05:41:30.495Z,7.85
2022-10-09T05:46:36.099Z,7.47
2022-10-09T05:51:42.696Z,8.15
2022-10-09T05:56:46.541Z,7.53
2022-10-09T06:01:54.541Z,8.52
2022-10-09T06:06:58.438Z,7.40
2022-10-09T06:12:02.188Z,8.02
2022-10-09T06:17:07.245Z,8.18
2022-10-09T06:22:10.958Z,8.75
2022-10-09T06:27:14.737Z,8.65
2022-10-09T06:32:19.828Z,9.93
2022-10-09T06:37:23.670Z,7.93
2022-10-09T06:42:27.383Z,8.80
2022-10-09T06:47:34.950Z,7.45
2022-10-09T06:52:38.805Z,7.57
2022-10-09T06:57:42.726Z,6.87
2022-10-09T07:02:48.207Z,6.03
2022-10-09T07:07:52.164Z,6.82
2022-10-09T07:12:55.979Z,6.25
2022-10-09T07:18:03.559Z,6.07
2022-10-09T07:23:10.092Z,5.50
2022-10-09T07:28:13.950Z,5.95
2022-10-09T07:33:19.050Z,5.60
2022-10-09T07:38:22.926Z,5.55
2022-10-09T07:43:29.719Z,5.30
2022-10-09T07:48:35.342Z,5.28
2022-10-09T07:53:39.661Z,4.95
2022-10-09T07:58:43.609Z,5.62
2022-10-09T08:03:49.327Z,4.85
2022-10-09T08:08:54.491Z,3.85
2022-10-09T08:13:58.988Z,5.40
2022-10-09T08:19:04.893Z,4.70
2022-10-09T08:24:08.701Z,4.60
2022-10-09T08:29:17.060Z,5.90
2022-10-09T08:34:22.100Z,4.85
2022-10-09T08:39:29.514Z,4.82
2022-10-09T08:44:39.479Z,5.25
2022-10-09T08:49:51.474Z,4.95
2022-10-09T08:54:58.291Z,4.50
2022-10-09T09:00:02.110Z,6.35
2022-10-09T09:05:20.618Z,4.93
2022-10-09T09:15:48.090Z,4.60
2022-10-09T09:20:55.620Z,4.93
2022-10-09T09:25:59.945Z,6.82
2022-10-09T09:31:09.623Z,5.00
2022-10-09T09:36:23.343Z,4.87
2022-10-09T09:41:28.976Z,4.57
2022-10-09T09:46:33.744Z,4.45
2022-10-09T09:51:38.913Z,4.12
2022-10-09T10:02:14.398Z,2.97
2022-10-09T10:07:30.217Z,2.70
2022-10-09T10:12:34.275Z,2.90
2022-10-09T10:17:38.635Z,2.67
2022-10-09T10:22:51.709Z,2.20
2022-10-09T10:28:01.838Z,2.75
2022-10-09T10:33:15.335Z,2.45
2022-10-09T10:38:26.584Z,2.55
2022-10-09T10:43:36.951Z,1.98
2022-10-09T10:48:42.889Z,2.87
2022-10-09T10:54:02.518Z,2.00
2022-10-09T10:59:26.212Z,2.05
2022-10-09T11:04:44.248Z,2.33
2022-10-09T11:09:59.098Z,1.87
2022-10-09T11:15:13.607Z,2.10
2022-10-09T11:20:40.184Z,2.05
2022-10-09T11:25:55.236Z,2.00
2022-10-09T11:31:05.149Z,1.80
2022-10-09T11:36:17.202Z,2.08
2022-10-09T11:41:22.953Z,1.90
2022-10-09T11:46:41.430Z,2.00
2022-10-09T11:51:51.811Z,1.95
2022-10-09T11:56:59.220Z,1.90
2022-10-09T12:02:22.994Z,1.80
2022-10-09T12:07:33.189Z,2.53
2022-10-09T12:12:38.996Z,1.80
2022-10-09T12:17:49.852Z,1.60
2022-10-09T12:23:21.716Z,2.58
2022-10-09T12:28:29.112Z,2.30
2022-10-09T12:33:37.861Z,1.98
2022-10-09T12:38:42.456Z,1.90
2022-10-09T12:43:49.121Z,2.08
2022-10-09T12:48:53.094Z,1.87
2022-10-09T12:53:57.077Z,2.42
2022-10-09T12:59:03.140Z,2.22
2022-10-09T13:04:09.457Z,2.42
2022-10-09T13:09:21.432Z,2.23
2022-10-09T13:14:29.624Z,1.70
2022-10-09T13:19:35.357Z,1.50
2022-10-09T13:24:39.192Z,2.00
2022-10-09T13:29:44.763Z,2.30
2022-10-09T13:34:48.529Z,1.75
2022-10-09T13:39:53.577Z,1.75
2022-10-09T13:44:58.814Z,1.60
2022-10-09T13:50:02.632Z,2.00
2022-10-09T13:55:07.309Z,1.70
2022-10-09T14:00:13.815Z,1.30
2022-10-09T14:05:17.781Z,1.80
2022-10-09T14:10:23.882Z,1.30
2022-10-09T14:15:29.277Z,1.53
2022-10-09T14:20:33.339Z,1.25
2022-10-09T14:25:37.221Z,1.98
2022-10-09T14:30:42.922Z,1.73
2022-10-09T14:35:46.758Z,1.15
2022-10-09T14:40:50.569Z,1.20
2022-10-09T14:46:04.121Z,1.95
2022-10-09T14:51:11.379Z,1.45
2022-10-09T14:56:17.365Z,1.58
2022-10-09T15:01:23.511Z,1.37
2022-10-09T15:06:28.214Z,1.20
2022-10-09T15:11:31.908Z,1.77
2022-10-09T15:16:37.318Z,1.27
2022-10-09T15:21:41.352Z,1.00
2022-10-09T15:26:45.023Z,1.45
2022-10-09T15:31:51.876Z,1.35
2022-10-09T15:36:55.669Z,1.37
2022-10-09T15:41:59.365Z,1.60
2022-10-09T15:47:04.488Z,1.50
2022-10-09T15:52:08.268Z,1.70
2022-10-09T15:57:12.029Z,1.90
2022-10-09T16:02:17.236Z,2.00
2022-10-09T16:07:20.980Z,1.87
2022-10-09T16:12:24.692Z,3.08
2022-10-09T16:17:29.777Z,3.67
2022-10-09T16:22:33.788Z,2.75
2022-10-09T16:27:37.656Z,5.15
2022-10-09T16:32:42.764Z,4.37
2022-10-09T16:37:46.605Z,7.95
2022-10-09T16:42:52.829Z,3.62
2022-10-09T16:48:01.469Z,2.90
2022-10-09T16:53:05.396Z,3.53
2022-10-09T16:58:09.252Z,3.10
2022-10-09T17:03:14.280Z,3.03
2022-10-09T17:08:18.105Z,2.92
2022-10-09T17:13:21.970Z,3.62
2022-10-09T17:18:27.100Z,3.33
2022-10-09T17:23:30.955Z,4.30
2022-10-09T17:28:35.453Z,5.32
2022-10-09T17:33:42.799Z,5.07
2022-10-09T17:38:47.304Z,5.10
2022-10-09T17:43:52.311Z,5.62
2022-10-09T17:48:58.506Z,6.72
2022-10-09T17:54:05.972Z,7.12
2022-10-09T17:59:13.943Z,6.97
2022-10-09T18:04:19.013Z,10.50
2022-10-09T18:09:22.871Z,6.22
2022-10-09T18:14:26.632Z,6.20
2022-10-09T18:19:31.817Z,3.90
2022-10-09T18:24:35.642Z,4.68
2022-10-09T18:29:39.401Z,4.55
2022-10-09T18:34:46.595Z,4.45
2022-10-09T18:39:50.727Z,3.70
2022-10-09T18:44:54.602Z,3.80
2022-10-09T18:50:01.799Z,4.00
2022-10-09T18:55:08.508Z,3.47
2022-10-09T19:00:13.853Z,2.97
2022-10-09T19:05:19.102Z,3.42
2022-10-09T19:10:23.088Z,2.90
2022-10-09T19:15:26.787Z,2.97
2022-10-09T19:20:32.398Z,2.78
2022-10-09T19:25:36.214Z,2.67
2022-10-09T19:30:40.356Z,2.60
2022-10-09T19:35:50.113Z,2.90
2022-10-09T19:40:54.438Z,2.75
2022-10-09T19:46:02.772Z,3.30
2022-10-09T19:51:10.353Z,3.03
2022-10-09T19:56:15.843Z,2.70
2022-10-09T20:01:21.339Z,3.17
2022-10-09T20:06:27.305Z,3.40
2022-10-09T20:11:31.028Z,3.12
2022-10-09T20:16:34.979Z,3.08
2022-10-09T20:21:40.215Z,2.90
2022-10-09T20:26:44.047Z,3.55
2022-10-09T20:31:48.794Z,2.87
2022-10-09T20:36:54.427Z,2.87
2022-10-09T20:41:59.619Z,3.15
2022-10-09T20:47:03.497Z,3.35
2022-10-09T20:52:08.642Z,3.08
2022-10-09T20:57:12.357Z,2.90
2022-10-09T21:02:16.676Z,3.72
2022-10-09T21:07:21.835Z,3.80
2022-10-09T21:12:25.582Z,2.92
2022-10-09T21:17:29.365Z,3.30
2022-10-09T21:22:34.793Z,3.10
2022-10-09T21:27:38.579Z,3.40
2022-10-09T21:32:44.565Z,3.85
2022-10-09T21:37:50.377Z,3.60
2022-10-09T21:42:54.044Z,3.55
2022-10-09T21:47:57.918Z,3.62
2022-10-09T21:53:03.223Z,3.95
2022-10-09T21:58:08.108Z,4.03
2022-10-09T22:03:11.836Z,4.32
2022-10-09T22:08:16.913Z,4.12
2022-10-09T22:13:21.740Z,3.92
2022-10-09T22:18:25.508Z,4.37
2022-10-09T22:23:30.717Z,4.30
2022-10-09T22:28:35.400Z,4.22
2022-10-09T22:33:39.331Z,4.00
2022-10-09T22:38:45.751Z,4.47
2022-10-09T22:43:51.205Z,4.00
2022-10-09T22:48:55.066Z,4.60
2022-10-09T22:54:00.836Z,4.53
2022-10-09T22:59:05.445Z,4.95
2022-10-09T23:04:13.047Z,4.40
2022-10-09T23:09:19.004Z,4.20
2022-10-09T23:14:22.717Z,4.55
2022-10-09T23:19:26.432Z,4.87
2022-10-09T23:24:31.484Z,4.80
2022-10-09T23:29:35.279Z,4.60
2022-10-09T23:34:39.034Z,4.75
2022-10-09T23:39:44.115Z,4.60
2022-10-09T23:44:47.826Z,4.85
2022-10-09T23:49:51.575Z,4.70
2022-10-09T23:54:56.616Z,5.18
